sensor_id;sensor_type;location;lat;lon;timestamp;pressure;altitude;pressure_sealevel;temperature
76381;BMP280;65202;52.520;10.528;2024-03-17T00:00:38;101792.31;;;5.87
76381;BMP280;65202;52.520;10.528;2024-03-17T00:03:08;101802.25;;;5.77
76381;BMP280;65202;52.520;10.528;2024-03-17T00:05:35;101795.19;;;5.82
76381;BMP280;65202;52.520;10.528;2024-03-17T00:08:03;101797.03;;;5.74
76381;BMP280;65202;52.520;10.528;2024-03-17T00:10:32;101791.06;;;5.82
76381;BMP280;65202;52.520;10.528;2024-03-17T00:12:59;101799.03;;;5.78
76381;BMP280;65202;52.520;10.528;2024-03-17T00:15:25;101799.03;;;5.78
76381;BMP280;65202;52.520;10.528;2024-03-17T00:17:52;101791.06;;;5.72
76381;BMP280;65202;52.520;10.528;2024-03-17T00:20:19;101796.56;;;5.59
76381;BMP280;65202;52.520;10.528;2024-03-17T00:22:50;101805.25;;;5.54
76381;BMP280;65202;52.520;10.528;2024-03-17T00:25:17;101792.59;;;5.51
76381;BMP280;65202;52.520;10.528;2024-03-17T00:27:46;101796.06;;;5.53
76381;BMP280;65202;52.520;10.528;2024-03-17T00:30:14;101796.94;;;5.53
76381;BMP280;65202;52.520;10.528;2024-03-17T00:32:42;101802.56;;;5.41
76381;BMP280;65202;52.520;10.528;2024-03-17T00:35:09;101811.97;;;5.35
76381;BMP280;65202;52.520;10.528;2024-03-17T00:37:40;101804.16;;;5.40
76381;BMP280;65202;52.520;10.528;2024-03-17T00:40:06;101811.72;;;5.42
76381;BMP280;65202;52.520;10.528;2024-03-17T00:42:33;101806.16;;;5.14
76381;BMP280;65202;52.520;10.528;2024-03-17T00:44:59;101801.03;;;5.23
76381;BMP280;65202;52.520;10.528;2024-03-17T00:47:26;101805.78;;;5.30
76381;BMP280;65202;52.520;10.528;2024-03-17T00:49:53;101803.06;;;5.17
76381;BMP280;65202;52.520;10.528;2024-03-17T00:52:19;101801.53;;;5.29
76381;BMP280;65202;52.520;10.528;2024-03-17T00:54:49;101803.78;;;5.26
76381;BMP280;65202;52.520;10.528;2024-03-17T00:57:15;101810.00;;;5.31
76381;BMP280;65202;52.520;10.528;2024-03-17T00:59:42;101804.03;;;5.09
76381;BMP280;65202;52.520;10.528;2024-03-17T01:02:12;101809.00;;;5.09
76381;BMP280;65202;52.520;10.528;2024-03-17T01:04:40;101803.91;;;5.37
76381;BMP280;65202;52.520;10.528;2024-03-17T01:07:06;101806.00;;;5.23
76381;BMP280;65202;52.520;10.528;2024-03-17T01:09:33;101806.00;;;5.43
76381;BMP280;65202;52.520;10.528;2024-03-17T01:11:59;101802.78;;;5.44
76381;BMP280;65202;52.520;10.528;2024-03-17T01:14:27;101806.28;;;5.46
76381;BMP280;65202;52.520;10.528;2024-03-17T01:16:55;101808.13;;;5.38
76381;BMP280;65202;52.520;10.528;2024-03-17T01:19:22;101810.97;;;5.23
76381;BMP280;65202;52.520;10.528;2024-03-17T01:21:49;101808.25;;;5.20
76381;BMP280;65202;52.520;10.528;2024-03-17T01:24:17;101807.47;;;4.71
76381;BMP280;65202;52.520;10.528;2024-03-17T01:26:44;101811.28;;;4.20
76381;BMP280;65202;52.520;10.528;2024-03-17T01:29:11;101797.47;;;4.99
76381;BMP280;65202;52.520;10.528;2024-03-17T01:31:38;101806.75;;;4.92
76381;BMP280;65202;52.520;10.528;2024-03-17T01:34:04;101801.53;;;4.89
76381;BMP280;65202;52.520;10.528;2024-03-17T01:36:31;101803.53;;;4.93
76381;BMP280;65202;52.520;10.528;2024-03-17T01:38:57;101802.16;;;4.97
76381;BMP280;65202;52.520;10.528;2024-03-17T01:41:24;101792.81;;;4.64
76381;BMP280;65202;52.520;10.528;2024-03-17T01:43:51;101794.56;;;4.85
76381;BMP280;65202;52.520;10.528;2024-03-17T01:46:17;101804.47;;;4.65
76381;BMP280;65202;52.520;10.528;2024-03-17T01:48:44;101805.34;;;4.66
76381;BMP280;65202;52.520;10.528;2024-03-17T01:51:13;101805.63;;;4.79
76381;BMP280;65202;52.520;10.528;2024-03-17T01:53:42;101814.03;;;4.71
76381;BMP280;65202;52.520;10.528;2024-03-17T01:56:10;101814.41;;;4.75
76381;BMP280;65202;52.520;10.528;2024-03-17T01:58:37;101806.72;;;4.72
76381;BMP280;65202;52.520;10.528;2024-03-17T02:01:04;101803.16;;;4.89
76381;BMP280;65202;52.520;10.528;2024-03-17T02:03:30;101800.06;;;4.91
76381;BMP280;65202;52.520;10.528;2024-03-17T02:06:01;101792.72;;;4.83
76381;BMP280;65202;52.520;10.528;2024-03-17T02:08:27;101798.06;;;4.87
76381;BMP280;65202;52.520;10.528;2024-03-17T02:10:54;101800.66;;;4.89
76381;BMP280;65202;52.520;10.528;2024-03-17T02:13:21;101802.75;;;4.84
76381;BMP280;65202;52.520;10.528;2024-03-17T02:15:48;101802.50;;;4.71
76381;BMP280;65202;52.520;10.528;2024-03-17T02:18:16;101802.63;;;4.83
76381;BMP280;65202;52.520;10.528;2024-03-17T02:20:42;101799.50;;;4.65
76381;BMP280;65202;52.520;10.528;2024-03-17T02:23:21;101799.69;;;4.77
76381;BMP280;65202;52.520;10.528;2024-03-17T02:25:48;101799.91;;;4.70
76381;BMP280;65202;52.520;10.528;2024-03-17T02:28:14;101809.53;;;4.47
76381;BMP280;65202;52.520;10.528;2024-03-17T02:30:41;101809.03;;;4.51
76381;BMP280;65202;52.520;10.528;2024-03-17T02:33:08;101807.16;;;4.48
76381;BMP280;65202;52.520;10.528;2024-03-17T02:35:34;101804.44;;;4.45
76381;BMP280;65202;52.520;10.528;2024-03-17T02:38:01;101807.19;;;4.58
76381;BMP280;65202;52.520;10.528;2024-03-17T02:40:29;101815.56;;;4.40
76381;BMP280;65202;52.520;10.528;2024-03-17T02:42:55;101809.91;;;4.61
76381;BMP280;65202;52.520;10.528;2024-03-17T02:45:22;101806.47;;;4.69
76381;BMP280;65202;52.520;10.528;2024-03-17T02:47:48;101808.94;;;4.59
76381;BMP280;65202;52.520;10.528;2024-03-17T02:50:16;101812.34;;;4.41
76381;BMP280;65202;52.520;10.528;2024-03-17T02:52:42;101814.53;;;4.29
76381;BMP280;65202;52.520;10.528;2024-03-17T02:55:10;101811.41;;;4.21
76381;BMP280;65202;52.520;10.528;2024-03-17T02:57:36;101819.06;;;4.14
76381;BMP280;65202;52.520;10.528;2024-03-17T03:00:03;101822.31;;;4.23
76381;BMP280;65202;52.520;10.528;2024-03-17T03:02:31;101818.19;;;4.14
76381;BMP280;65202;52.520;10.528;2024-03-17T03:04:58;101814.88;;;4.23
76381;BMP280;65202;52.520;10.528;2024-03-17T03:07:24;101816.81;;;4.36
76381;BMP280;65202;52.520;10.528;2024-03-17T03:09:51;101820.66;;;4.14
76381;BMP280;65202;52.520;10.528;2024-03-17T03:12:17;101823.50;;;4.08
76381;BMP280;65202;52.520;10.528;2024-03-17T03:14:44;101812.50;;;4.15
76381;BMP280;65202;52.520;10.528;2024-03-17T03:17:10;101810.69;;;4.04
76381;BMP280;65202;52.520;10.528;2024-03-17T03:19:37;101821.13;;;4.10
76381;BMP280;65202;52.520;10.528;2024-03-17T03:22:04;101807.97;;;4.01
76381;BMP280;65202;52.520;10.528;2024-03-17T03:24:30;101805.19;;;4.16
76381;BMP280;65202;52.520;10.528;2024-03-17T03:26:59;101810.09;;;4.06
76381;BMP280;65202;52.520;10.528;2024-03-17T03:29:25;101805.63;;;4.02
76381;BMP280;65202;52.520;10.528;2024-03-17T03:31:52;101805.81;;;4.24
76381;BMP280;65202;52.520;10.528;2024-03-17T03:34:18;101804.19;;;4.14
76381;BMP280;65202;52.520;10.528;2024-03-17T03:36:45;101800.38;;;4.28
76381;BMP280;65202;52.520;10.528;2024-03-17T03:39:11;101805.59;;;4.21
76381;BMP280;65202;52.520;10.528;2024-03-17T03:41:40;101785.47;;;4.18
76381;BMP280;65202;52.520;10.528;2024-03-17T03:44:06;101791.19;;;4.17
76381;BMP280;65202;52.520;10.528;2024-03-17T03:46:34;101799.75;;;3.92
76381;BMP280;65202;52.520;10.528;2024-03-17T03:49:01;101807.91;;;3.91
76381;BMP280;65202;52.520;10.528;2024-03-17T03:51:27;101807.38;;;3.85
76381;BMP280;65202;52.520;10.528;2024-03-17T03:53:54;101803.22;;;3.94
76381;BMP280;65202;52.520;10.528;2024-03-17T03:56:21;101801.28;;;3.81
76381;BMP280;65202;52.520;10.528;2024-03-17T03:58:48;101810.25;;;3.89
76381;BMP280;65202;52.520;10.528;2024-03-17T04:01:16;101812.50;;;3.96
76381;BMP280;65202;52.520;10.528;2024-03-17T04:03:48;101810.25;;;3.89
76381;BMP280;65202;52.520;10.528;2024-03-17T04:06:15;101809.31;;;3.97
76381;BMP280;65202;52.520;10.528;2024-03-17T04:08:43;101809.84;;;4.03
76381;BMP280;65202;52.520;10.528;2024-03-17T04:11:10;101816.13;;;4.00
76381;BMP280;65202;52.520;10.528;2024-03-17T04:13:37;101810.94;;;3.97
76381;BMP280;65202;52.520;10.528;2024-03-17T04:16:04;101810.16;;;3.98
76381;BMP280;65202;52.520;10.528;2024-03-17T04:18:33;101808.41;;;3.69
76381;BMP280;65202;52.520;10.528;2024-03-17T04:21:05;101812.47;;;3.86
76381;BMP280;65202;52.520;10.528;2024-03-17T04:23:33;101808.72;;;3.81
76381;BMP280;65202;52.520;10.528;2024-03-17T04:26:00;101806.06;;;3.70
76381;BMP280;65202;52.520;10.528;2024-03-17T04:28:27;101813.56;;;3.62
76381;BMP280;65202;52.520;10.528;2024-03-17T04:31:03;101813.22;;;3.30
76381;BMP280;65202;52.520;10.528;2024-03-17T04:33:31;101811.16;;;3.08
76381;BMP280;65202;52.520;10.528;2024-03-17T04:35:58;101821.84;;;3.44
76381;BMP280;65202;52.520;10.528;2024-03-17T04:38:25;101822.13;;;3.65
76381;BMP280;65202;52.520;10.528;2024-03-17T04:40:53;101818.31;;;3.69
76381;BMP280;65202;52.520;10.528;2024-03-17T04:43:33;101815.09;;;3.70
76381;BMP280;65202;52.520;10.528;2024-03-17T04:46:01;101824.94;;;3.78
76381;BMP280;65202;52.520;10.528;2024-03-17T04:48:33;101825.72;;;3.87
76381;BMP280;65202;52.520;10.528;2024-03-17T04:51:00;101822.97;;;3.84
76381;BMP280;65202;52.520;10.528;2024-03-17T04:53:27;101825.44;;;3.84
76381;BMP280;65202;52.520;10.528;2024-03-17T04:56:04;101827.19;;;3.85
76381;BMP280;65202;52.520;10.528;2024-03-17T04:58:32;101828.94;;;3.86
76381;BMP280;65202;52.520;10.528;2024-03-17T05:01:08;101825.00;;;3.88
76381;BMP280;65202;52.520;10.528;2024-03-17T05:03:35;101840.91;;;3.45
76381;BMP280;65202;52.520;10.528;2024-03-17T05:06:03;101834.97;;;3.61
76381;BMP280;65202;52.520;10.528;2024-03-17T05:08:31;101834.44;;;3.73
76381;BMP280;65202;52.520;10.528;2024-03-17T05:11:00;101843.91;;;3.32
76381;BMP280;65202;52.520;10.528;2024-03-17T05:13:32;101838.66;;;3.56
76381;BMP280;65202;52.520;10.528;2024-03-17T05:16:02;101856.94;;;3.48
76381;BMP280;65202;52.520;10.528;2024-03-17T05:18:32;101846.06;;;3.56
76381;BMP280;65202;52.520;10.528;2024-03-17T05:21:03;101847.63;;;3.46
76381;BMP280;65202;52.520;10.528;2024-03-17T05:23:32;101851.03;;;3.56
76381;BMP280;65202;52.520;10.528;2024-03-17T05:26:00;101843.88;;;3.59
76381;BMP280;65202;52.520;10.528;2024-03-17T05:28:28;101843.00;;;3.77
76381;BMP280;65202;52.520;10.528;2024-03-17T05:30:55;101846.69;;;3.90
76381;BMP280;65202;52.520;10.528;2024-03-17T05:33:24;101850.69;;;3.98
76381;BMP280;65202;52.520;10.528;2024-03-17T05:35:55;101851.25;;;3.86
76381;BMP280;65202;52.520;10.528;2024-03-17T05:38:24;101854.25;;;3.92
76381;BMP280;65202;52.520;10.528;2024-03-17T05:40:59;101858.56;;;4.13
76381;BMP280;65202;52.520;10.528;2024-03-17T05:43:28;101858.53;;;3.84
76381;BMP280;65202;52.520;10.528;2024-03-17T05:45:57;101857.28;;;3.79
76381;BMP280;65202;52.520;10.528;2024-03-17T05:48:25;101862.53;;;3.92
76381;BMP280;65202;52.520;10.528;2024-03-17T05:50:51;101868.59;;;3.86
76381;BMP280;65202;52.520;10.528;2024-03-17T05:53:19;101872.06;;;3.88
76381;BMP280;65202;52.520;10.528;2024-03-17T05:55:46;101879.22;;;3.85
76381;BMP280;65202;52.520;10.528;2024-03-17T05:58:13;101876.63;;;4.02
76381;BMP280;65202;52.520;10.528;2024-03-17T06:00:40;101886.34;;;3.90
76381;BMP280;65202;52.520;10.528;2024-03-17T06:03:06;101874.94;;;4.11
76381;BMP280;65202;52.520;10.528;2024-03-17T06:05:34;101877.06;;;3.98
76381;BMP280;65202;52.520;10.528;2024-03-17T06:08:03;101885.22;;;4.15
76381;BMP280;65202;52.520;10.528;2024-03-17T06:10:32;101888.19;;;4.11
76381;BMP280;65202;52.520;10.528;2024-03-17T06:12:59;101886.19;;;4.07
76381;BMP280;65202;52.520;10.528;2024-03-17T06:15:26;101890.13;;;4.24
76381;BMP280;65202;52.520;10.528;2024-03-17T06:17:53;101891.25;;;4.09
76381;BMP280;65202;52.520;10.528;2024-03-17T06:20:21;101891.56;;;4.40
76381;BMP280;65202;52.520;10.528;2024-03-17T06:22:50;101887.75;;;4.25
76381;BMP280;65202;52.520;10.528;2024-03-17T06:25:16;101902.38;;;4.04
76381;BMP280;65202;52.520;10.528;2024-03-17T06:27:43;101891.84;;;4.43
76381;BMP280;65202;52.520;10.528;2024-03-17T06:30:13;101893.44;;;4.42
76381;BMP280;65202;52.520;10.528;2024-03-17T06:32:43;101897.91;;;4.46
76381;BMP280;65202;52.520;10.528;2024-03-17T06:35:14;101884.59;;;4.64
76381;BMP280;65202;52.520;10.528;2024-03-17T06:37:51;101897.88;;;4.65
76381;BMP280;65202;52.520;10.528;2024-03-17T06:40:18;101893.75;;;4.65
76381;BMP280;65202;52.520;10.528;2024-03-17T06:42:44;101898.47;;;4.62
76381;BMP280;65202;52.520;10.528;2024-03-17T06:45:11;101900.38;;;4.75
76381;BMP280;65202;52.520;10.528;2024-03-17T06:47:38;101892.34;;;4.77
76381;BMP280;65202;52.520;10.528;2024-03-17T06:50:06;101897.31;;;4.87
76381;BMP280;65202;52.520;10.528;2024-03-17T06:52:36;101892.88;;;4.93
76381;BMP280;65202;52.520;10.528;2024-03-17T06:55:06;101897.34;;;4.97
76381;BMP280;65202;52.520;10.528;2024-03-17T06:57:35;101896.38;;;5.05
76381;BMP280;65202;52.520;10.528;2024-03-17T07:00:02;101898.88;;;5.15
76381;BMP280;65202;52.520;10.528;2024-03-17T07:02:32;101896.41;;;5.25
76381;BMP280;65202;52.520;10.528;2024-03-17T07:04:58;101899.38;;;5.11
76381;BMP280;65202;52.520;10.528;2024-03-17T07:07:28;101895.69;;;5.36
76381;BMP280;65202;52.520;10.528;2024-03-17T07:09:54;101900.88;;;5.39
76381;BMP280;65202;52.520;10.528;2024-03-17T07:12:21;101896.03;;;5.30
76381;BMP280;65202;52.520;10.528;2024-03-17T07:14:50;101899.88;;;5.57
76381;BMP280;65202;52.520;10.528;2024-03-17T07:17:18;101893.94;;;5.64
76381;BMP280;65202;52.520;10.528;2024-03-17T07:19:47;101902.78;;;5.81
76381;BMP280;65202;52.520;10.528;2024-03-17T07:22:15;101897.41;;;6.06
76381;BMP280;65202;52.520;10.528;2024-03-17T07:24:42;101892.56;;;5.88
76381;BMP280;65202;52.520;10.528;2024-03-17T07:27:10;101893.25;;;6.26
76381;BMP280;65202;52.520;10.528;2024-03-17T07:29:40;101895.56;;;5.94
76381;BMP280;65202;52.520;10.528;2024-03-17T07:32:06;101890.50;;;6.33
76381;BMP280;65202;52.520;10.528;2024-03-17T07:34:33;101889.88;;;6.67
76381;BMP280;65202;52.520;10.528;2024-03-17T07:37:01;101887.22;;;6.97
76381;BMP280;65202;52.520;10.528;2024-03-17T07:39:30;101888.50;;;6.92
76381;BMP280;65202;52.520;10.528;2024-03-17T07:41:59;101881.34;;;6.96
76381;BMP280;65202;52.520;10.528;2024-03-17T07:44:28;101877.38;;;6.98
76381;BMP280;65202;52.520;10.528;2024-03-17T07:47:00;101871.19;;;7.59
76381;BMP280;65202;52.520;10.528;2024-03-17T07:49:27;101875.97;;;7.79
76381;BMP280;65202;52.520;10.528;2024-03-17T07:51:54;101884.47;;;8.04
76381;BMP280;65202;52.520;10.528;2024-03-17T07:54:20;101880.50;;;8.28
76381;BMP280;65202;52.520;10.528;2024-03-17T07:56:47;101872.22;;;8.88
76381;BMP280;65202;52.520;10.528;2024-03-17T07:59:13;101884.50;;;8.15
76381;BMP280;65202;52.520;10.528;2024-03-17T08:01:44;101874.63;;;8.86
76381;BMP280;65202;52.520;10.528;2024-03-17T08:04:12;101875.09;;;8.81
76381;BMP280;65202;52.520;10.528;2024-03-17T08:06:39;101872.09;;;9.59
76381;BMP280;65202;52.520;10.528;2024-03-17T08:09:10;101864.31;;;10.44
76381;BMP280;65202;52.520;10.528;2024-03-17T08:11:38;101867.16;;;10.50
76381;BMP280;65202;52.520;10.528;2024-03-17T08:14:05;101872.81;;;11.00
76381;BMP280;65202;52.520;10.528;2024-03-17T08:16:32;101856.03;;;11.54
76381;BMP280;65202;52.520;10.528;2024-03-17T08:18:58;101852.16;;;12.03
76381;BMP280;65202;52.520;10.528;2024-03-17T08:21:25;101841.00;;;12.43
76381;BMP280;65202;52.520;10.528;2024-03-17T08:23:55;101847.03;;;11.72
76381;BMP280;65202;52.520;10.528;2024-03-17T08:26:22;101850.13;;;11.68
76381;BMP280;65202;52.520;10.528;2024-03-17T08:28:48;101845.72;;;11.22
76381;BMP280;65202;52.520;10.528;2024-03-17T08:31:14;101845.81;;;11.65
76381;BMP280;65202;52.520;10.528;2024-03-17T08:33:44;101847.34;;;11.63
76381;BMP280;65202;52.520;10.528;2024-03-17T08:36:10;101858.50;;;11.12
76381;BMP280;65202;52.520;10.528;2024-03-17T08:38:37;101856.78;;;11.11
76381;BMP280;65202;52.520;10.528;2024-03-17T08:41:06;101855.50;;;10.90
76381;BMP280;65202;52.520;10.528;2024-03-17T08:43:34;101847.63;;;11.12
76381;BMP280;65202;52.520;10.528;2024-03-17T08:48:32;101856.53;;;11.63
76381;BMP280;65202;52.520;10.528;2024-03-17T08:51:00;101839.44;;;12.45
76381;BMP280;65202;52.520;10.528;2024-03-17T08:53:28;101840.66;;;12.67
76381;BMP280;65202;52.520;10.528;2024-03-17T08:55:56;101839.63;;;12.03
76381;BMP280;65202;52.520;10.528;2024-03-17T08:58:23;101844.56;;;12.02
76381;BMP280;65202;52.520;10.528;2024-03-17T09:00:50;101840.06;;;12.41
76381;BMP280;65202;52.520;10.528;2024-03-17T09:03:20;101843.34;;;12.10
76381;BMP280;65202;52.520;10.528;2024-03-17T09:05:47;101852.97;;;11.45
76381;BMP280;65202;52.520;10.528;2024-03-17T09:08:21;101848.69;;;11.29
76381;BMP280;65202;52.520;10.528;2024-03-17T09:10:50;101847.25;;;12.05
76381;BMP280;65202;52.520;10.528;2024-03-17T09:13:20;101840.38;;;12.17
76381;BMP280;65202;52.520;10.528;2024-03-17T09:16:00;101838.94;;;11.48
76381;BMP280;65202;52.520;10.528;2024-03-17T09:18:31;101846.38;;;11.32
76381;BMP280;65202;52.520;10.528;2024-03-17T09:21:05;101834.13;;;11.10
76381;BMP280;65202;52.520;10.528;2024-03-17T09:23:36;101832.66;;;11.69
76381;BMP280;65202;52.520;10.528;2024-03-17T09:26:07;101837.03;;;11.44
76381;BMP280;65202;52.520;10.528;2024-03-17T09:28:36;101853.66;;;10.61
76381;BMP280;65202;52.520;10.528;2024-03-17T09:31:03;101850.31;;;10.87
76381;BMP280;65202;52.520;10.528;2024-03-17T09:33:34;101854.38;;;10.85
76381;BMP280;65202;52.520;10.528;2024-03-17T09:36:04;101858.19;;;10.66
76381;BMP280;65202;52.520;10.528;2024-03-17T09:38:37;101848.88;;;12.19
76381;BMP280;65202;52.520;10.528;2024-03-17T09:41:06;101843.38;;;12.56
76381;BMP280;65202;52.520;10.528;2024-03-17T09:43:34;101843.59;;;13.23
76381;BMP280;65202;52.520;10.528;2024-03-17T09:46:02;101832.13;;;13.78
76381;BMP280;65202;52.520;10.528;2024-03-17T09:48:30;101831.00;;;13.38
76381;BMP280;65202;52.520;10.528;2024-03-17T09:50:58;101824.19;;;14.04
76381;BMP280;65202;52.520;10.528;2024-03-17T09:53:31;101818.84;;;13.81
76381;BMP280;65202;52.520;10.528;2024-03-17T09:56:14;101818.75;;;14.67
76381;BMP280;65202;52.520;10.528;2024-03-17T09:58:42;101817.16;;;15.07
76381;BMP280;65202;52.520;10.528;2024-03-17T10:01:09;101822.06;;;15.42
76381;BMP280;65202;52.520;10.528;2024-03-17T10:03:52;101811.00;;;15.79
76381;BMP280;65202;52.520;10.528;2024-03-17T10:06:23;101813.19;;;15.31
76381;BMP280;65202;52.520;10.528;2024-03-17T10:08:54;101815.78;;;15.93
76381;BMP280;65202;52.520;10.528;2024-03-17T10:11:35;101811.88;;;15.59
76381;BMP280;65202;52.520;10.528;2024-03-17T10:14:07;101812.22;;;15.68
76381;BMP280;65202;52.520;10.528;2024-03-17T10:16:36;101816.44;;;15.49
76381;BMP280;65202;52.520;10.528;2024-03-17T10:19:10;101822.44;;;15.51
76381;BMP280;65202;52.520;10.528;2024-03-17T10:21:41;101811.75;;;15.98
76381;BMP280;65202;52.520;10.528;2024-03-17T10:24:22;101813.03;;;16.09
76381;BMP280;65202;52.520;10.528;2024-03-17T10:26:52;101809.69;;;15.88
76381;BMP280;65202;52.520;10.528;2024-03-17T10:32:12;101817.78;;;14.64
76381;BMP280;65202;52.520;10.528;2024-03-17T10:34:40;101815.91;;;14.60
76381;BMP280;65202;52.520;10.528;2024-03-17T10:37:15;101827.69;;;13.39
76381;BMP280;65202;52.520;10.528;2024-03-17T10:39:46;101825.84;;;13.53
76381;BMP280;65202;52.520;10.528;2024-03-17T10:42:28;101830.44;;;13.44
76381;BMP280;65202;52.520;10.528;2024-03-17T10:44:57;101830.59;;;13.31
76381;BMP280;65202;52.520;10.528;2024-03-17T10:47:25;101830.97;;;13.05
76381;BMP280;65202;52.520;10.528;2024-03-17T10:49:55;101830.06;;;12.73
76381;BMP280;65202;52.520;10.528;2024-03-17T10:52:23;101844.34;;;11.69
76381;BMP280;65202;52.520;10.528;2024-03-17T10:54:53;101848.50;;;11.27
76381;BMP280;65202;52.520;10.528;2024-03-17T11:00:06;101821.81;;;12.29
76381;BMP280;65202;52.520;10.528;2024-03-17T11:02:36;101829.78;;;12.22
76381;BMP280;65202;52.520;10.528;2024-03-17T11:08:01;101837.00;;;12.47
76381;BMP280;65202;52.520;10.528;2024-03-17T11:10:32;101832.34;;;12.08
76381;BMP280;65202;52.520;10.528;2024-03-17T11:13:02;101836.19;;;12.32
76381;BMP280;65202;52.520;10.528;2024-03-17T11:20:43;101810.75;;;13.87
76381;BMP280;65202;52.520;10.528;2024-03-17T11:23:26;101811.88;;;13.42
76381;BMP280;65202;52.520;10.528;2024-03-17T11:25:56;101817.06;;;12.96
76381;BMP280;65202;52.520;10.528;2024-03-17T11:28:45;101812.34;;;12.09
76381;BMP280;65202;52.520;10.528;2024-03-17T11:31:32;101806.16;;;12.95
76381;BMP280;65202;52.520;10.528;2024-03-17T11:34:29;101805.16;;;12.61
76381;BMP280;65202;52.520;10.528;2024-03-17T11:37:05;101794.34;;;13.10
76381;BMP280;65202;52.520;10.528;2024-03-17T11:39:51;101800.47;;;13.48
76381;BMP280;65202;52.520;10.528;2024-03-17T11:42:23;101789.34;;;13.61
76381;BMP280;65202;52.520;10.528;2024-03-17T11:45:04;101805.25;;;13.26
76381;BMP280;65202;52.520;10.528;2024-03-17T11:47:35;101798.63;;;13.28
76381;BMP280;65202;52.520;10.528;2024-03-17T11:50:06;101808.69;;;13.28
76381;BMP280;65202;52.520;10.528;2024-03-17T11:52:37;101801.47;;;12.25
76381;BMP280;65202;52.520;10.528;2024-03-17T11:55:04;101797.91;;;13.99
76381;BMP280;65202;52.520;10.528;2024-03-17T11:57:31;101792.22;;;13.35
76381;BMP280;65202;52.520;10.528;2024-03-17T11:59:58;101803.69;;;13.46
76381;BMP280;65202;52.520;10.528;2024-03-17T12:02:29;101801.56;;;13.88
76381;BMP280;65202;52.520;10.528;2024-03-17T12:04:58;101789.78;;;14.77
76381;BMP280;65202;52.520;10.528;2024-03-17T12:07:26;101783.34;;;14.64
76381;BMP280;65202;52.520;10.528;2024-03-17T12:09:54;101772.75;;;15.11
76381;BMP280;65202;52.520;10.528;2024-03-17T12:12:25;101771.81;;;14.69
76381;BMP280;65202;52.520;10.528;2024-03-17T12:15:03;101766.94;;;14.36
76381;BMP280;65202;52.520;10.528;2024-03-17T12:17:42;101769.97;;;13.25
76381;BMP280;65202;52.520;10.528;2024-03-17T12:20:19;101768.00;;;13.53
76381;BMP280;65202;52.520;10.528;2024-03-17T12:22:47;101757.28;;;14.09
76381;BMP280;65202;52.520;10.528;2024-03-17T12:25:19;101756.00;;;14.92
76381;BMP280;65202;52.520;10.528;2024-03-17T12:27:47;101742.59;;;14.93
76381;BMP280;65202;52.520;10.528;2024-03-17T12:30:15;101748.72;;;15.18
76381;BMP280;65202;52.520;10.528;2024-03-17T12:32:43;101737.84;;;14.61
76381;BMP280;65202;52.520;10.528;2024-03-17T12:35:14;101721.56;;;15.13
76381;BMP280;65202;52.520;10.528;2024-03-17T12:37:45;101727.56;;;14.96
76381;BMP280;65202;52.520;10.528;2024-03-17T12:40:22;101732.50;;;14.93
76381;BMP280;65202;52.520;10.528;2024-03-17T12:42:50;101717.59;;;15.18
76381;BMP280;65202;52.520;10.528;2024-03-17T12:45:21;101718.13;;;15.11
76381;BMP280;65202;52.520;10.528;2024-03-17T12:47:50;101727.22;;;14.49
76381;BMP280;65202;52.520;10.528;2024-03-17T12:50:18;101711.28;;;15.09
76381;BMP280;65202;52.520;10.528;2024-03-17T12:52:55;101720.69;;;14.92
76381;BMP280;65202;52.520;10.528;2024-03-17T12:55:23;101723.25;;;14.54
76381;BMP280;65202;52.520;10.528;2024-03-17T12:58:09;101708.41;;;15.20
76381;BMP280;65202;52.520;10.528;2024-03-17T13:01:08;101710.50;;;15.10
76381;BMP280;65202;52.520;10.528;2024-03-17T13:03:36;101702.13;;;15.11
76381;BMP280;65202;52.520;10.528;2024-03-17T13:06:09;101700.69;;;14.57
76381;BMP280;65202;52.520;10.528;2024-03-17T13:08:40;101703.75;;;13.95
76381;BMP280;65202;52.520;10.528;2024-03-17T13:11:08;101696.78;;;14.64
76381;BMP280;65202;52.520;10.528;2024-03-17T13:13:35;101681.34;;;15.16
76381;BMP280;65202;52.520;10.528;2024-03-17T13:16:02;101685.06;;;15.44
76381;BMP280;65202;52.520;10.528;2024-03-17T13:18:28;101690.88;;;14.26
76381;BMP280;65202;52.520;10.528;2024-03-17T13:20:55;101683.44;;;14.48
76381;BMP280;65202;52.520;10.528;2024-03-17T13:23:24;101679.47;;;14.52
76381;BMP280;65202;52.520;10.528;2024-03-17T13:25:51;101670.88;;;15.07
76381;BMP280;65202;52.520;10.528;2024-03-17T13:28:17;101670.63;;;14.81
76381;BMP280;65202;52.520;10.528;2024-03-17T13:30:43;101668.53;;;14.91
76381;BMP280;65202;52.520;10.528;2024-03-17T13:33:10;101677.34;;;13.51
76381;BMP280;65202;52.520;10.528;2024-03-17T13:35:41;101676.31;;;13.30
76381;BMP280;65202;52.520;10.528;2024-03-17T13:38:09;101676.94;;;14.15
76381;BMP280;65202;52.520;10.528;2024-03-17T13:40:40;101665.72;;;15.04
76381;BMP280;65202;52.520;10.528;2024-03-17T13:43:08;101681.31;;;14.75
76381;BMP280;65202;52.520;10.528;2024-03-17T13:45:39;101689.81;;;14.40
76381;BMP280;65202;52.520;10.528;2024-03-17T13:48:07;101694.56;;;13.61
76381;BMP280;65202;52.520;10.528;2024-03-17T13:50:38;101683.44;;;13.92
76381;BMP280;65202;52.520;10.528;2024-03-17T13:53:05;101673.44;;;14.88
76381;BMP280;65202;52.520;10.528;2024-03-17T13:55:32;101680.44;;;14.75
76381;BMP280;65202;52.520;10.528;2024-03-17T13:57:59;101675.28;;;14.72
76381;BMP280;65202;52.520;10.528;2024-03-17T14:00:27;101681.41;;;14.20
76381;BMP280;65202;52.520;10.528;2024-03-17T14:02:55;101688.25;;;13.52
76381;BMP280;65202;52.520;10.528;2024-03-17T14:05:27;101690.25;;;13.59
76381;BMP280;65202;52.520;10.528;2024-03-17T14:07:55;101683.34;;;13.03
76381;BMP280;65202;52.520;10.528;2024-03-17T14:10:23;101683.41;;;13.04
76381;BMP280;65202;52.520;10.528;2024-03-17T14:12:51;101687.06;;;13.44
76381;BMP280;65202;52.520;10.528;2024-03-17T14:15:19;101682.50;;;13.54
76381;BMP280;65202;52.520;10.528;2024-03-17T14:17:47;101685.66;;;13.68